Time;durP1;ratioP1;P1;durP2;ratioP2;P2;SDS_P1;SDS_P2;PMS_P1;PMS_P2;Temp;Humidity;BMP_temperature;BMP_pressure;BME280_temperature;BME280_humidity;BME280_pressure;Samples;Min_cycle;Max_cycle;Signal;HPM_P1;HPM_P2
2022/08/09 00:01:13;;;;;;;4.55;3.70;;;;;;;20.88;55.51;102603.88;6213666;23;20043;-62
2022/08/09 00:03:39;;;;;;;5.38;3.03;;;;;;;20.96;55.26;102600.50;6213459;23;20004;-62
2022/08/09 00:06:04;;;;;;;4.75;3.45;;;;;;;20.96;55.23;102605.28;6211892;23;20008;-62
2022/08/09 00:08:29;;;;;;;4.18;3.30;;;;;;;20.94;55.22;102611.19;6214105;23;20004;-62
2022/08/09 00:10:55;;;;;;;3.50;3.17;;;;;;;20.92;55.34;102596.53;6213745;23;20096;-62
2022/08/09 00:13:20;;;;;;;5.90;3.95;;;;;;;20.81;55.56;102604.13;6212192;23;20000;-63
2022/08/09 00:15:45;;;;;;;5.05;3.78;;;;;;;20.91;55.25;102596.84;6214194;23;20080;-62
2022/08/09 00:18:11;;;;;;;6.75;4.07;;;;;;;20.76;55.59;102592.84;6209063;23;20113;-62
2022/08/09 00:20:36;;;;;;;5.90;3.97;;;;;;;20.83;54.97;102593.44;6211992;23;20413;-62
2022/08/09 00:23:01;;;;;;;5.20;3.80;;;;;;;20.84;55.28;102594.28;6213881;23;20084;-62
2022/08/09 00:25:27;;;;;;;5.10;2.95;;;;;;;20.84;55.23;102597.94;6213220;23;20108;-62
2022/08/09 00:27:52;;;;;;;8.27;3.67;;;;;;;20.82;55.38;102600.19;6211756;23;20012;-62
2022/08/09 00:30:17;;;;;;;6.78;4.10;;;;;;;20.74;55.51;102595.09;6213504;23;20019;-62
2022/08/09 00:32:43;;;;;;;7.82;4.28;;;;;;;20.64;55.61;102588.59;6212542;23;20413;-62
2022/08/09 00:35:09;;;;;;;6.68;3.83;;;;;;;20.55;55.74;102585.47;6213788;23;20036;-62
2022/08/09 00:37:34;;;;;;;6.28;3.67;;;;;;;20.67;55.55;102594.53;6214660;23;20151;-62
2022/08/09 00:39:59;;;;;;;6.82;3.80;;;;;;;20.62;55.57;102594.50;6212948;23;20005;-63
2022/08/09 00:42:27;;;;;;;4.32;3.35;;;;;;;20.70;55.49;102595.94;6212692;23;20066;-62
2022/08/09 00:44:53;;;;;;;4.60;3.03;;;;;;;20.71;55.57;102597.63;6213038;23;20004;-62
2022/08/09 00:47:18;;;;;;;8.10;4.38;;;;;;;20.67;55.48;102593.66;6212600;23;20059;-62
2022/08/09 00:49:43;;;;;;;4.68;3.40;;;;;;;20.68;55.41;102590.59;6212298;23;20092;-62
2022/08/09 00:52:08;;;;;;;4.22;3.30;;;;;;;20.64;55.57;102592.28;6211679;23;20012;-62
2022/08/09 00:54:34;;;;;;;6.82;4.05;;;;;;;20.61;55.46;102592.81;6212754;23;20009;-62
2022/08/09 00:56:59;;;;;;;5.40;3.33;;;;;;;20.63;55.55;102589.72;6212116;23;20087;-62
2022/08/09 00:59:27;;;;;;;5.43;3.20;;;;;;;20.63;55.52;102592.53;6213392;23;20009;-62
2022/08/09 01:01:53;;;;;;;4.15;3.42;;;;;;;20.51;55.44;102596.44;6209787;23;20007;-62
2022/08/09 01:04:32;;;;;;;4.72;3.95;;;;;;;20.55;55.51;102593.91;6213002;23;20099;-62
2022/08/09 01:07:04;;;;;;;3.97;3.13;;;;;;;20.57;55.53;102600.16;6214065;23;20060;-62
2022/08/09 01:09:53;;;;;;;5.88;2.88;;;;;;;20.61;55.27;102592.81;6210379;23;20015;-62
2022/08/09 01:12:28;;;;;;;3.17;2.65;;;;;;;20.61;55.07;102598.47;6211738;23;20405;-62
2022/08/09 01:15:04;;;;;;;3.97;3.28;;;;;;;20.61;55.03;102598.47;6212431;23;20406;-62
2022/08/09 01:17:34;;;;;;;4.75;2.85;;;;;;;20.59;55.34;102586.59;6211528;23;20425;-62
2022/08/09 01:20:05;;;;;;;3.30;2.80;;;;;;;20.59;55.34;102598.75;6213223;23;20015;-62
2022/08/09 01:22:51;;;;;;;4.50;3.25;;;;;;;20.61;55.03;102601.28;6212914;23;20091;-62
2022/08/09 01:25:44;;;;;;;3.65;3.08;;;;;;;20.56;55.00;102598.47;6212653;23;20310;-62
2022/08/09 01:28:11;;;;;;;3.83;3.40;;;;;;;20.51;55.20;102598.44;6212220;23;20018;-63
2022/08/09 01:30:39;;;;;;;6.18;3.50;;;;;;;20.48;55.42;102601.78;6210959;23;20439;-62
2022/08/09 01:33:10;;;;;;;3.38;2.75;;;;;;;20.52;55.26;102600.97;6213556;23;20484;-62
2022/08/09 01:35:52;;;;;;;4.70;2.83;;;;;;;20.55;55.07;102588.28;6214007;23;20044;-62
2022/08/09 01:38:23;;;;;;;6.18;3.30;;;;;;;20.50;55.21;102591.94;6212409;23;20435;-62
2022/08/09 01:40:54;;;;;;;3.53;2.90;;;;;;;20.51;55.13;102587.13;6211790;23;20008;-62
2022/08/09 01:43:21;;;;;;;7.10;3.67;;;;;;;20.43;55.30;102584.84;6213276;23;20040;-63
2022/08/09 01:45:47;;;;;;;7.50;3.42;;;;;;;20.40;55.55;102585.41;6212100;23;20005;-62
2022/08/09 01:48:16;;;;;;;3.88;3.38;;;;;;;20.32;55.66;102584.81;6213225;23;20016;-61
2022/08/09 01:50:43;;;;;;;4.78;3.25;;;;;;;20.40;55.29;102588.22;6212252;23;20013;-61
2022/08/09 01:53:10;;;;;;;4.07;3.50;;;;;;;20.37;55.54;102591.59;6212158;23;20001;-62
2022/08/09 01:55:36;;;;;;;3.30;2.50;;;;;;;20.41;55.39;102592.75;6212851;23;20017;-62
2022/08/09 01:58:04;;;;;;;3.88;2.70;;;;;;;20.41;55.19;102592.75;6211118;23;20384;-62
2022/08/09 02:00:30;;;;;;;5.50;3.97;;;;;;;20.29;55.63;102585.38;6211784;23;20436;-61
2022/08/09 02:02:56;;;;;;;3.30;2.92;;;;;;;20.38;55.35;102596.09;6213286;23;20009;-62
2022/08/09 02:05:22;;;;;;;5.28;3.13;;;;;;;20.37;55.25;102600.06;6212394;23;20011;-62
2022/08/09 02:07:56;;;;;;;5.47;3.63;;;;;;;20.37;55.09;102602.88;6214058;23;20013;-62
2022/08/09 02:10:26;;;;;;;5.18;2.53;;;;;;;20.36;55.25;102607.69;6212335;23;20044;-61
2022/08/09 02:12:54;;;;;;;5.35;4.10;;;;;;;20.21;55.42;102610.44;6212164;23;20008;-61
2022/08/09 02:15:23;;;;;;;3.13;2.78;;;;;;;20.26;55.44;102600.00;6212086;23;20020;-62
2022/08/09 02:17:51;;;;;;;5.53;4.13;;;;;;;20.14;55.56;102607.88;6213018;23;20078;-62
2022/08/09 02:20:17;;;;;;;5.53;3.88;;;;;;;20.06;55.69;102597.97;6210529;23;20032;-62
2022/08/09 02:22:59;;;;;;;4.35;3.92;;;;;;;20.04;55.71;102593.72;6213259;23;20084;-62
2022/08/09 02:25:33;;;;;;;4.72;4.22;;;;;;;19.98;55.91;102600.47;6212515;23;20348;-62
2022/08/09 02:28:05;;;;;;;7.63;3.80;;;;;;;20.05;55.72;102595.44;6212080;23;20032;-62
2022/08/09 02:30:33;;;;;;;;;;;;;;;20.24;54.86;102599.47;6211936;23;20675;-62
2022/08/09 02:33:00;;;;;;;3.55;2.88;;;;;;;20.13;55.58;102600.53;6213308;23;19904;-63
2022/08/09 02:35:27;;;;;;;8.48;3.80;;;;;;;20.04;55.67;102599.34;6211703;23;20092;-61
2022/08/09 02:37:59;;;;;;;5.63;3.90;;;;;;;19.96;55.93;102592.25;6212872;23;20020;-61
2022/08/09 02:40:28;;;;;;;5.85;3.90;;;;;;;20.00;55.76;102598.19;6211244;23;20112;-62
2022/08/09 02:42:54;;;;;;;5.70;4.13;;;;;;;19.95;56.00;102589.72;6211686;23;20009;-62
2022/08/09 02:45:28;;;;;;;5.85;3.45;;;;;;;20.02;55.67;102590.34;6211710;23;20417;-62
2022/08/09 02:47:55;;;;;;;5.03;4.18;;;;;;;20.00;55.94;102590.63;6211709;23;20009;-62
2022/08/09 02:50:29;;;;;;;4.85;3.58;;;;;;;20.04;55.74;102588.94;6210751;23;20367;-62
2022/08/09 02:53:11;;;;;;;7.72;3.97;;;;;;;20.06;55.69;102591.47;6212628;23;20034;-62
2022/08/09 02:55:39;;;;;;;5.70;3.80;;;;;;;20.05;55.84;102592.59;6211907;23;20005;-62
2022/08/09 02:58:06;;;;;;;6.40;3.92;;;;;;;19.97;55.88;102584.69;6215146;23;20026;-62
2022/08/09 03:00:32;;;;;;;4.85;2.97;;;;;;;20.04;55.74;102593.72;6213098;23;20004;-62
2022/08/09 03:02:59;;;;;;;4.47;3.97;;;;;;;20.00;56.03;102598.19;6213906;23;20027;-62
2022/08/09 03:05:25;;;;;;;5.32;3.40;;;;;;;20.01;55.76;102583.00;6214396;23;20092;-61
2022/08/09 03:07:53;;;;;;;4.38;2.97;;;;;;;19.97;55.96;102588.34;6214652;23;20421;-62
2022/08/09 03:10:19;;;;;;;5.53;3.40;;;;;;;20.01;55.86;102585.81;6211885;23;20019;-62
2022/08/09 03:12:47;;;;;;;5.43;2.97;;;;;;;20.00;55.90;102584.97;6212841;23;20000;-62
2022/08/09 03:15:13;;;;;;;3.10;2.83;;;;;;;19.97;56.02;102582.72;6213841;23;20013;-62
2022/08/09 03:17:38;;;;;;;4.57;4.00;;;;;;;19.92;56.03;102593.09;6213675;23;20020;-62
2022/08/09 03:20:06;;;;;;;4.43;3.97;;;;;;;19.79;56.31;102594.44;6211555;23;20098;-61
2022/08/09 03:22:34;;;;;;;5.13;4.43;;;;;;;19.72;56.63;102586.22;6212694;23;20001;-61
2022/08/09 03:24:59;;;;;;;3.05;2.70;;;;;;;19.87;56.20;102591.09;6213084;23;20015;-62
2022/08/09 03:27:26;;;;;;;5.50;3.58;;;;;;;19.83;56.25;102581.50;6212219;23;20468;-62
2022/08/09 03:29:53;;;;;;;4.07;3.30;;;;;;;19.83;56.05;102582.34;6212920;23;20001;-62
2022/08/09 03:32:19;;;;;;;5.68;5.00;;;;;;;19.68;56.71;102585.06;6213897;23;20012;-62
2022/08/09 03:34:44;;;;;;;4.93;3.08;;;;;;;19.80;56.16;102582.03;6213184;23;20008;-62
2022/08/09 03:37:09;;;;;;;6.47;4.57;;;;;;;19.68;56.60;102585.06;6211902;23;20421;-62
2022/08/09 03:39:35;;;;;;;4.97;3.78;;;;;;;19.75;56.52;102590.47;6214233;23;20425;-62
2022/08/09 03:42:00;;;;;;;4.22;3.78;;;;;;;19.77;56.37;102585.44;6213475;23;20095;-61
2022/08/09 03:44:28;;;;;;;5.78;4.82;;;;;;;19.65;56.59;102596.91;6212470;23;20008;-62
2022/08/09 03:46:54;;;;;;;5.10;3.67;;;;;;;19.74;56.39;102595.25;6212672;23;20082;-61
2022/08/09 03:49:21;;;;;;;4.07;3.53;;;;;;;19.74;56.39;102592.44;6213890;23;20008;-61
2022/08/09 03:51:49;;;;;;;6.60;3.70;;;;;;;19.71;56.61;102597.78;6213324;23;20413;-62
2022/08/09 03:54:15;;;;;;;4.43;4.03;;;;;;;19.65;56.75;102594.09;6214100;23;20001;-62
2022/08/09 03:56:43;;;;;;;4.53;3.53;;;;;;;19.69;56.59;102591.53;6213623;23;20011;-62
2022/08/09 03:59:09;;;;;;;5.97;4.85;;;;;;;19.45;57.22;102603.19;6212754;23;20008;-63
2022/08/09 04:01:35;;;;;;;5.32;4.53;;;;;;;19.51;56.99;102606.91;6214458;23;20009;-62
2022/08/09 04:04:02;;;;;;;10.70;5.72;;;;;;;19.41;57.37;102601.19;6212547;23;20032;-62
2022/08/09 04:06:27;;;;;;;4.25;3.58;;;;;;;19.57;56.84;102591.72;6212513;23;20008;-62
2022/08/09 04:08:52;;;;;;;6.05;4.68;;;;;;;19.54;56.90;102592.28;6213124;23;20435;-61
2022/08/09 04:11:18;;;;;;;7.15;4.47;;;;;;;19.58;56.92;102590.63;6214348;23;20432;-62
2022/08/09 04:13:43;;;;;;;6.95;5.18;;;;;;;19.49;57.17;102595.94;6212750;23;20013;-62
2022/08/09 04:16:08;;;;;;;7.57;4.90;;;;;;;19.49;57.24;102587.47;6212371;23;20035;-61
2022/08/09 04:18:34;;;;;;;5.13;4.15;;;;;;;19.50;57.13;102591.13;6213051;23;20009;-62
2022/08/09 04:20:59;;;;;;;7.38;3.22;;;;;;;19.54;56.89;102590.31;6212961;23;20012;-62
2022/08/09 04:23:24;;;;;;;4.30;3.90;;;;;;;19.51;56.96;102590.00;6212585;23;20012;-62
2022/08/09 04:25:49;;;;;;;5.47;3.38;;;;;;;19.54;57.16;102589.47;6212152;23;20015;-61
2022/08/09 04:28:15;;;;;;;5.13;3.53;;;;;;;19.55;56.99;102599.59;6213061;23;20376;-62
2022/08/09 04:30:40;;;;;;;5.65;3.63;;;;;;;19.53;56.88;102599.03;6212948;23;20008;-62
2022/08/09 04:33:05;;;;;;;6.00;4.00;;;;;;;19.48;57.05;102607.44;6212442;23;20074;-61
2022/08/09 04:35:31;;;;;;;5.78;3.88;;;;;;;19.51;56.92;102612.53;6212123;23;20016;-61
2022/08/09 04:37:56;;;;;;;8.23;5.68;;;;;;;19.42;57.26;102611.34;6213940;23;20004;-62
2022/08/09 04:40:21;;;;;;;8.55;5.32;;;;;;;19.40;57.34;102608.78;6211397;23;20019;-62
2022/08/09 04:42:47;;;;;;;4.78;4.22;;;;;;;19.42;57.30;102611.34;6213354;23;20432;-63
2022/08/09 04:45:12;;;;;;;6.75;5.03;;;;;;;19.46;57.20;102610.53;6213007;23;20422;-62
2022/08/09 04:47:37;;;;;;;9.45;5.93;;;;;;;19.41;57.40;102618.94;6211760;23;20083;-62
2022/08/09 04:50:03;;;;;;;6.45;4.32;;;;;;;19.44;57.38;102617.56;6212595;23;20092;-63
2022/08/09 04:52:29;;;;;;;7.32;5.15;;;;;;;19.40;57.51;102619.22;6213162;23;20005;-63
2022/08/09 04:54:56;;;;;;;7.13;3.90;;;;;;;19.48;57.26;102618.72;6212050;23;20027;-62
2022/08/09 04:57:21;;;;;;;12.00;6.72;;;;;;;19.41;57.67;102624.56;6213411;23;20013;-62
2022/08/09 04:59:46;;;;;;;12.15;6.35;;;;;;;19.32;57.88;102614.94;6212216;23;20001;-62
2022/08/09 05:02:12;;;;;;;5.60;3.42;;;;;;;19.41;57.65;102623.72;6212077;23;20004;-62
2022/08/09 05:04:38;;;;;;;7.63;5.82;;;;;;;19.35;57.37;102622.84;6212686;23;20009;-62
2022/08/09 05:07:03;;;;;;;4.95;4.45;;;;;;;19.41;57.51;102623.72;6212143;23;20071;-62
2022/08/09 05:09:29;;;;;;;5.75;4.60;;;;;;;19.42;57.73;102636.69;6212317;23;20012;-62
2022/08/09 05:11:56;;;;;;;9.07;6.20;;;;;;;19.35;57.37;102629.31;6213336;23;20048;-62
2022/08/09 05:14:21;;;;;;;8.77;6.80;;;;;;;19.24;58.09;102629.50;6213034;23;20021;-62
2022/08/09 05:16:46;;;;;;;7.30;6.50;;;;;;;19.30;58.07;102634.91;6210913;23;20004;-62
2022/08/09 05:19:13;;;;;;;8.27;7.40;;;;;;;19.23;58.14;102634.28;6211446;23;20091;-62
2022/08/09 05:21:39;;;;;;;6.07;4.75;;;;;;;19.31;57.91;102636.59;6212214;23;20008;-62
2022/08/09 05:24:05;;;;;;;8.07;6.53;;;;;;;19.24;58.20;102632.31;6210413;23;20479;-62
2022/08/09 05:26:31;;;;;;;9.20;6.65;;;;;;;19.16;58.54;102633.66;6206495;23;20478;-61
2022/08/09 05:28:56;;;;;;;8.75;7.78;;;;;;;19.17;58.82;102640.97;6210379;23;20020;-62
2022/08/09 05:31:22;;;;;;;8.27;7.28;;;;;;;19.12;58.91;102632.50;6211905;23;20053;-62
2022/08/09 05:33:47;;;;;;;9.10;7.40;;;;;;;19.19;58.73;102629.47;6210231;23;20008;-62
2022/08/09 05:36:12;;;;;;;8.30;4.47;;;;;;;19.29;58.21;102630.38;6209095;23;20436;-61
2022/08/09 05:38:38;;;;;;;10.10;6.43;;;;;;;19.25;58.69;102634.84;6211304;23;20013;-62
2022/08/09 05:41:03;;;;;;;4.97;4.47;;;;;;;19.32;58.42;102632.66;6212669;23;20008;-62
2022/08/09 05:43:28;;;;;;;5.88;3.95;;;;;;;19.38;58.29;102642.03;6212170;23;20696;-62
2022/08/09 05:45:53;;;;;;;6.72;4.43;;;;;;;19.41;58.13;102646.25;6212834;23;20483;-63
2022/08/09 05:48:19;;;;;;;6.88;5.40;;;;;;;19.39;58.47;102638.06;6211266;23;20020;-63
2022/08/09 05:50:44;;;;;;;9.77;7.40;;;;;;;19.33;58.99;102637.16;6210679;23;20076;-62
2022/08/09 05:53:10;;;;;;;10.27;7.57;;;;;;;19.22;59.38;102648.66;6210911;23;20008;-63
2022/08/09 05:55:35;;;;;;;8.73;6.15;;;;;;;19.30;58.75;102643.38;6211230;23;20019;-61
2022/08/09 05:58:01;;;;;;;9.15;7.45;;;;;;;19.28;59.34;102642.78;6208550;23;20009;-62
2022/08/09 06:00:29;;;;;;;5.68;4.07;;;;;;;19.38;58.92;102658.91;6209365;23;20047;-62
2022/08/09 06:03:43;;;;;;;10.73;7.05;;;;;;;19.34;58.66;102655.78;6203734;23;20047;-65
2022/08/09 06:10:36;;;;;;;8.02;7.22;;;;;;;19.42;58.87;102659.22;6209313;23;20502;-65
2022/08/09 06:21:00;;;;;;;8.25;5.10;;;;;;;19.67;58.51;102667.91;6146270;23;20052;-64
2022/08/09 06:27:06;;;;;;;7.70;4.70;;;;;;;19.85;58.70;102673.09;6022700;23;20012;-65
2022/08/09 06:30:25;;;;;;;10.63;6.32;;;;;;;19.86;58.41;102657.88;6172097;23;20043;-68
2022/08/09 06:44:05;;;;;;;6.65;4.60;;;;;;;20.19;58.19;102674.69;6024596;23;20011;-66
2022/08/09 06:47:44;;;;;;;7.13;4.63;;;;;;;20.27;58.15;102677.00;6015959;23;20104;-65
2022/08/09 06:50:52;;;;;;;5.40;3.83;;;;;;;20.33;58.20;102665.47;5949756;24;20016;-65
2022/08/09 06:53:47;;;;;;;4.72;3.95;;;;;;;20.45;57.71;102676.53;5995949;23;20478;-64
2022/08/09 06:57:10;;;;;;;7.97;4.30;;;;;;;20.46;57.62;102668.91;5974738;23;20020;-64
2022/08/09 06:59:57;;;;;;;;;;;;;;;20.58;57.33;102670.38;6174030;23;20017;-68
2022/08/09 07:03:22;;;;;;;;;;;;;;;;;;;;;
2022/08/09 07:16:44;;;;;;;4.20;3.83;;;;;;;20.89;57.49;102689.41;6182136;23;20017;-64
2022/08/09 07:26:24;;;;;;;;;;;;;;;;;;;;;
2022/08/09 07:29:08;;;;;;;6.40;5.15;;;;;;;21.06;57.51;102689.97;6082937;23;20094;-64
2022/08/09 07:32:43;;;;;;;;;;;;;;;;;;;;;
2022/08/09 07:35:53;;;;;;;7.43;4.38;;;;;;;21.10;56.68;102688.28;6153744;23;20460;-64
2022/08/09 07:38:54;;;;;;;6.40;4.88;;;;;;;21.19;56.70;102700.75;6159929;23;20062;-67
2022/08/09 07:41:59;;;;;;;12.88;7.88;;;;;;;21.22;57.07;102690.84;6208162;23;20071;-65
2022/08/09 07:45:24;;;;;;;6.43;4.35;;;;;;;21.30;56.62;102694.00;6207252;23;20004;-65
2022/08/09 07:48:22;;;;;;;9.60;5.80;;;;;;;21.35;56.76;102681.88;6164758;23;20374;-65
2022/08/09 07:54:40;;;;;;;8.32;6.82;;;;;;;21.48;56.53;102691.75;6196996;23;20452;-65
2022/08/09 07:58:02;;;;;;;;;;;;;;;;;;;;;
2022/08/09 08:04:28;;;;;;;10.18;6.72;;;;;;;21.57;56.05;102684.41;6169863;23;20043;-66
2022/08/09 08:10:53;;;;;;;;;;;;;;;;;;;;;
2022/08/09 08:13:43;;;;;;;9.00;6.53;;;;;;;21.77;55.98;102692.00;6093223;23;20080;-65
2022/08/09 08:20:00;;;;;;;8.43;6.75;;;;;;;21.89;55.08;102698.25;6163618;23;20024;-65
2022/08/09 08:23:10;;;;;;;8.90;5.83;;;;;;;21.99;55.30;102700.19;6179693;23;20013;-66
2022/08/09 08:26:00;;;;;;;11.00;6.25;;;;;;;22.07;54.82;102696.78;6120832;23;20041;-66
2022/08/09 08:29:23;;;;;;;;;;;;;;;;;;;;;
2022/08/09 08:35:53;;;;;;;11.73;5.90;;;;;;;22.26;53.86;102688.56;6148592;23;20017;-66
2022/08/09 08:45:42;;;;;;;7.15;4.70;;;;;;;22.43;53.16;102696.69;6059255;23;20063;-66
2022/08/09 08:48:43;;;;;;;11.45;5.50;;;;;;;22.47;53.08;102695.81;6057824;23;20097;-66
2022/08/09 08:52:28;;;;;;;8.77;4.93;;;;;;;22.55;53.37;102689.56;6060227;23;20460;-66
2022/08/09 08:59:25;;;;;;;7.80;4.97;;;;;;;22.66;52.56;102692.34;6029710;23;20015;-65
2022/08/09 09:02:22;;;;;;;7.33;4.70;;;;;;;22.73;52.54;102693.72;6076432;23;20016;-66
2022/08/09 09:12:32;;;;;;;6.68;2.88;;;;;;;22.90;51.09;102718.00;6158476;23;20313;-66
2022/08/09 09:19:21;;;;;;;;;;;;;;;;;;;;;
2022/08/09 09:22:49;;;;;;;5.15;2.83;;;;;;;23.08;51.41;102720.19;6018563;23;20105;-66
2022/08/09 09:40:10;;;;;;;;;;;;;;;;;;;;;
2022/08/09 09:43:39;;;;;;;;;;;;;;;;;;;;;
2022/08/09 09:53:40;;;;;;;;;;;;;;;;;;;;;
2022/08/09 09:57:12;;;;;;;3.72;1.70;;;;;;;23.56;47.99;102709.06;6169509;23;20492;-68
2022/08/09 10:03:40;;;;;;;3.63;1.58;;;;;;;23.59;45.54;102702.81;6178533;23;20016;-66
2022/08/09 10:20:02;;;;;;;2.00;1.30;;;;;;;23.89;44.87;102709.34;6063845;23;20478;-65
2022/08/09 10:23:20;;;;;;;;;;;;;;;;;;;;;
2022/08/09 10:26:55;;;;;;;4.22;1.48;;;;;;;23.92;45.78;102697.41;6043751;23;19996;-67
2022/08/09 10:41:12;;;;;;;4.43;1.10;;;;;;;24.12;44.09;102691.53;6073401;23;20010;-68
2022/08/09 11:02:31;;;;;;;4.53;1.30;;;;;;;24.32;43.04;102667.72;6095472;23;20107;-65
2022/08/09 11:12:48;;;;;;;;;;;;;;;;;;;;;
2022/08/09 11:26:17;;;;;;;2.92;0.85;;;;;;;24.61;42.22;102675.38;6177610;23;20028;-65
2022/08/09 11:29:20;;;;;;;3.05;1.20;;;;;;;24.59;40.71;102675.66;6137922;23;20013;-63
2022/08/09 11:46:40;;;;;;;1.65;1.00;;;;;;;24.79;41.46;102656.66;6183746;23;20064;-64
2022/08/09 12:06:15;;;;;;;;;;;;;;;;;;;;;
2022/08/09 12:09:44;;;;;;;;;;;;;;;;;;;;;
2022/08/09 12:12:54;;;;;;;2.50;1.10;;;;;;;25.01;39.39;102630.47;6221219;23;20514;-64
2022/08/09 12:19:58;;;;;;;1.98;0.93;;;;;;;25.01;40.51;102621.94;6117758;23;20021;-65
2022/08/09 12:23:03;;;;;;;2.00;0.90;;;;;;;25.05;39.52;102628.72;6060891;23;20038;-65
2022/08/09 12:26:12;;;;;;;2.25;0.88;;;;;;;25.07;39.83;102630.06;6061665;23;20066;-64
2022/08/09 12:29:31;;;;;;;2.22;1.00;;;;;;;25.13;40.29;102628.88;6038973;23;20449;-62
2022/08/09 12:36:05;;;;;;;2.92;1.00;;;;;;;25.25;40.29;102617.03;6032650;23;20083;-65
2022/08/09 12:42:40;;;;;;;4.28;0.90;;;;;;;25.25;39.84;102613.34;6016259;23;20560;-64
2022/08/09 12:49:21;;;;;;;1.73;0.98;;;;;;;25.28;38.62;102601.34;6022043;23;20461;-65
2022/08/09 12:52:10;;;;;;;1.92;0.80;;;;;;;25.37;38.71;102606.00;5980883;23;20068;-65
2022/08/09 12:55:36;;;;;;;3.08;0.93;;;;;;;25.32;39.33;102599.59;6086992;23;20441;-67
2022/08/09 12:59:48;;;;;;;2.55;0.93;;;;;;;25.36;38.95;102606.34;5994192;23;20019;-65
2022/08/09 13:02:32;;;;;;;1.70;0.82;;;;;;;25.33;37.72;102595.56;5974752;23;20023;-65
2022/08/09 13:05:49;;;;;;;2.05;0.85;;;;;;;25.34;38.57;102597.25;5964538;23;20048;-65
2022/08/09 13:09:02;;;;;;;2.88;1.05;;;;;;;25.31;38.30;102586.50;6060529;23;20461;-64
2022/08/09 13:12:10;;;;;;;1.30;0.77;;;;;;;25.29;38.72;102580.31;6088289;23;20010;-65
2022/08/09 13:18:01;;;;;;;2.78;1.00;;;;;;;25.29;37.62;102592.50;6211888;23;20467;-65
2022/08/09 13:27:34;;;;;;;2.70;0.90;;;;;;;25.30;38.77;102571.44;6209749;23;20039;-67
2022/08/09 13:31:13;;;;;;;1.50;0.90;;;;;;;25.36;38.71;102575.06;6206029;23;20036;-66
2022/08/09 13:34:09;;;;;;;3.88;0.90;;;;;;;25.31;38.21;102563.75;5947925;24;20020;-67
2022/08/09 13:37:41;;;;;;;1.33;0.85;;;;;;;25.39;38.58;102571.59;5940912;24;20046;-65
2022/08/09 13:40:37;;;;;;;2.80;0.80;;;;;;;25.40;37.62;102561.91;5990777;23;20022;-65
2022/08/09 13:47:09;;;;;;;1.38;0.68;;;;;;;25.38;37.99;102544.31;6190248;23;20019;-65
2022/08/09 13:49:48;;;;;;;;;;;;;;;25.45;38.88;102559.81;6210958;23;20004;-65
2022/08/09 13:52:54;;;;;;;1.92;0.85;;;;;;;25.42;37.06;102549.06;6132795;23;20322;-65
2022/08/09 13:55:35;;;;;;;1.65;0.90;;;;;;;25.47;37.49;102550.97;6089290;23;20442;-65
2022/08/09 14:02:18;;;;;;;2.25;0.80;;;;;;;25.48;38.56;102564.03;6061190;23;20042;-64
2022/08/09 14:09:16;;;;;;;4.00;1.00;;;;;;;25.40;37.47;102547.69;6063569;23;20022;-64
2022/08/09 14:15:33;;;;;;;;;;;;;;;;;;;;;
2022/08/09 14:18:55;;;;;;;;;;;;;;;;;;;;;
2022/08/09 14:22:29;;;;;;;3.08;1.17;;;;;;;25.49;38.27;102548.66;6039466;23;20062;-63
2022/08/09 14:25:43;;;;;;;3.05;1.00;;;;;;;25.47;38.17;102550.97;5914559;24;20012;-63
2022/08/09 14:32:43;;;;;;;1.83;0.90;;;;;;;25.51;37.67;102546.34;6063081;23;20046;-66
2022/08/09 14:38:54;;;;;;;3.13;1.00;;;;;;;25.59;36.41;102536.25;6068294;23;20465;-65
2022/08/09 14:49:12;;;;;;;7.60;1.10;;;;;;;25.59;37.54;102539.94;6092358;23;20014;-64
2022/08/09 14:52:31;;;;;;;5.07;1.10;;;;;;;25.58;37.43;102531.69;6016413;23;20465;-64
2022/08/09 14:55:28;;;;;;;2.90;1.13;;;;;;;25.61;37.75;102534.75;6115110;23;20077;-65
2022/08/09 14:58:22;;;;;;;;;;;;;;;;;;;;;
2022/08/09 15:04:57;;;;;;;3.10;1.08;;;;;;;25.48;37.83;102523.38;6140832;23;20008;-65
2022/08/09 15:07:55;;;;;;;1.60;1.00;;;;;;;25.52;38.25;102536.66;6237104;23;20019;-64
2022/08/09 15:10:20;;;;;;;3.28;1.33;;;;;;;25.50;37.35;102524.75;6238648;23;20422;-61
2022/08/09 15:12:48;;;;;;;1.58;1.00;;;;;;;25.50;37.29;102523.91;6235499;23;20042;-62
2022/08/09 15:15:13;;;;;;;2.08;0.90;;;;;;;25.50;37.49;102526.75;6240441;23;20007;-61
2022/08/09 15:17:39;;;;;;;1.45;0.95;;;;;;;25.48;37.49;102534.75;6241383;23;20012;-62
2022/08/09 15:20:08;;;;;;;3.70;1.00;;;;;;;25.44;37.39;102528.84;6240596;23;20045;-62
2022/08/09 15:22:33;;;;;;;2.15;1.05;;;;;;;25.42;36.89;102534.00;6239410;23;20008;-62
2022/08/09 15:24:59;;;;;;;2.55;1.10;;;;;;;25.40;37.04;102522.94;6241043;23;20122;-62
2022/08/09 15:27:24;;;;;;;2.40;1.00;;;;;;;25.40;38.05;102527.81;6240042;23;20008;-61
2022/08/09 15:29:50;;;;;;;2.72;1.10;;;;;;;25.38;37.52;102519.56;6238375;23;20093;-61
2022/08/09 15:32:15;;;;;;;4.13;0.90;;;;;;;25.38;37.84;102525.25;6241672;23;20012;-62
2022/08/09 15:34:42;;;;;;;3.47;1.00;;;;;;;25.38;37.73;102532.94;6240594;23;20074;-62
2022/08/09 15:39:52;;;;;;;4.57;1.00;;;;;;;25.38;38.05;102530.94;6242538;23;20015;-62
2022/08/09 15:42:17;;;;;;;6.03;1.13;;;;;;;25.34;37.82;102527.03;6242167;23;20008;-63
2022/08/09 15:44:42;;;;;;;3.08;1.15;;;;;;;25.31;38.23;102526.81;6242159;23;20015;-63
2022/08/09 15:47:11;;;;;;;3.10;0.93;;;;;;;25.28;38.13;102527.47;6243103;23;20086;-63
2022/08/09 15:49:36;;;;;;;2.75;0.90;;;;;;;25.25;38.25;102523.25;6241311;23;20008;-63
2022/08/09 15:52:01;;;;;;;1.92;1.05;;;;;;;25.24;38.29;102521.56;6242475;23;20092;-63
2022/08/09 15:54:27;;;;;;;3.38;1.10;;;;;;;25.24;38.45;102517.88;6242522;23;20065;-62
2022/08/09 15:56:52;;;;;;;1.80;1.15;;;;;;;25.25;38.14;102508.19;6241347;23;20011;-62
2022/08/09 15:59:17;;;;;;;1.50;0.82;;;;;;;25.25;39.19;102506.19;6242742;23;20498;-63
2022/08/09 16:01:42;;;;;;;2.15;0.93;;;;;;;25.25;38.45;102505.34;6241382;23;20004;-62
2022/08/09 16:04:08;;;;;;;1.95;1.02;;;;;;;25.25;38.64;102499.66;6241255;23;20087;-61
2022/08/09 16:10:34;;;;;;;1.52;0.90;;;;;;;25.28;39.05;102496.19;6137859;23;20454;-63
2022/08/09 16:13:17;;;;;;;2.78;0.98;;;;;;;25.27;38.73;102498.22;6233388;23;20012;-63
2022/08/09 16:19:17;;;;;;;1.15;0.95;;;;;;;25.28;38.13;102488.50;6119320;23;20157;-65
2022/08/09 16:22:52;;;;;;;1.60;0.90;;;;;;;25.30;38.84;102486.19;6223958;23;20008;-65
2022/08/09 16:25:57;;;;;;;2.45;1.10;;;;;;;25.25;38.85;102474.94;6071956;23;20033;-65
2022/08/09 16:47:19;;;;;;;;;;;;;;;;;;;;;
2022/08/09 16:53:32;;;;;;;2.15;1.00;;;;;;;25.27;38.62;102497.34;6214478;23;20047;-65
2022/08/09 17:21:37;;;;;;;;;;;;;;;;;;;;;
2022/08/09 17:24:58;;;;;;;2.17;1.00;;;;;;;25.10;39.98;102480.91;5944183;24;20632;-65
2022/08/09 17:32:12;;;;;;;1.80;1.00;;;;;;;25.08;39.66;102477.50;5942928;24;20480;-60
2022/08/09 17:35:50;;;;;;;;;;;;;;;;;;;;;
2022/08/09 17:42:29;;;;;;;1.98;1.00;;;;;;;25.08;39.44;102488.88;6060626;23;20068;-63
2022/08/09 17:49:21;;;;;;;1.33;0.95;;;;;;;25.05;39.49;102495.19;6242875;23;20013;-63
2022/08/09 17:51:48;;;;;;;4.45;1.10;;;;;;;24.98;38.58;102495.56;6111450;23;20037;-60
2022/08/09 17:54:14;;;;;;;4.90;0.93;;;;;;;24.96;38.56;102497.91;6226887;23;20004;-60
2022/08/09 17:56:41;;;;;;;3.13;0.90;;;;;;;24.98;39.21;102506.94;6239822;23;20061;-60
2022/08/09 17:59:06;;;;;;;3.47;0.88;;;;;;;24.95;39.10;102507.53;6240412;23;20020;-60
2022/08/09 18:01:32;;;;;;;1.88;1.00;;;;;;;24.95;39.26;102507.53;6241687;23;20012;-59
2022/08/09 18:03:57;;;;;;;1.70;0.80;;;;;;;24.93;39.02;102499.34;6242460;23;20458;-60
2022/08/09 18:06:23;;;;;;;3.65;0.90;;;;;;;24.92;39.26;102508.19;6244136;23;20319;-60
2022/08/09 18:08:49;;;;;;;2.88;0.88;;;;;;;24.89;39.12;102505.97;6242874;23;20344;-59
2022/08/09 18:11:14;;;;;;;2.65;1.00;;;;;;;24.88;39.38;102507.13;6243185;23;20011;-59
2022/08/09 18:13:39;;;;;;;1.83;1.00;;;;;;;24.86;39.20;102504.59;6244301;23;20039;-60
2022/08/09 18:16:05;;;;;;;1.35;0.98;;;;;;;24.86;39.74;102498.06;6243321;23;20370;-60
2022/08/09 18:18:35;;;;;;;2.35;0.85;;;;;;;24.84;39.33;102517.44;6243892;23;20011;-59
2022/08/09 18:21:04;;;;;;;2.72;1.10;;;;;;;24.83;39.28;102510.88;6244311;23;20083;-60
2022/08/09 18:23:29;;;;;;;1.40;0.88;;;;;;;24.83;39.80;102508.03;6242391;23;20379;-60